sensor_id;sensor_type;location;lat;lon;timestamp;P1;durP1;ratioP1;P2;durP2;ratioP2
10920;SDS011;5513;50.580;8.818;2022-09-03T00:01:21;1.27;;;1.10;;
10920;SDS011;5513;50.580;8.818;2022-09-03T00:03:56;1.50;;;1.27;;
10920;SDS011;5513;50.580;8.818;2022-09-03T00:06:29;2.30;;;1.33;;
10920;SDS011;5513;50.580;8.818;2022-09-03T00:09:02;2.53;;;1.30;;
10920;SDS011;5513;50.580;8.818;2022-09-03T00:11:38;2.00;;;1.40;;
10920;SDS011;5513;50.580;8.818;2022-09-03T00:14:14;3.30;;;1.47;;
10920;SDS011;5513;50.580;8.818;2022-09-03T00:16:50;2.03;;;1.30;;
10920;SDS011;5513;50.580;8.818;2022-09-03T00:19:23;2.50;;;1.30;;
10920;SDS011;5513;50.580;8.818;2022-09-03T00:21:56;1.30;;;1.20;;
10920;SDS011;5513;50.580;8.818;2022-09-03T00:24:28;2.23;;;1.20;;
10920;SDS011;5513;50.580;8.818;2022-09-03T00:27:04;2.73;;;1.23;;
10920;SDS011;5513;50.580;8.818;2022-09-03T00:29:38;1.10;;;1.00;;
10920;SDS011;5513;50.580;8.818;2022-09-03T00:32:16;2.77;;;1.60;;
10920;SDS011;5513;50.580;8.818;2022-09-03T00:34:50;2.60;;;1.30;;
10920;SDS011;5513;50.580;8.818;2022-09-03T00:37:28;2.50;;;1.73;;
10920;SDS011;5513;50.580;8.818;2022-09-03T00:40:04;2.70;;;1.83;;
10920;SDS011;5513;50.580;8.818;2022-09-03T00:42:42;2.27;;;1.10;;
10920;SDS011;5513;50.580;8.818;2022-09-03T00:45:22;3.73;;;1.27;;
10920;SDS011;5513;50.580;8.818;2022-09-03T00:48:07;3.90;;;1.27;;
10920;SDS011;5513;50.580;8.818;2022-09-03T00:50:58;5.20;;;1.90;;
10920;SDS011;5513;50.580;8.818;2022-09-03T00:53:42;5.53;;;3.30;;
10920;SDS011;5513;50.580;8.818;2022-09-03T00:56:21;2.13;;;1.27;;
10920;SDS011;5513;50.580;8.818;2022-09-03T00:59:02;2.27;;;1.40;;
10920;SDS011;5513;50.580;8.818;2022-09-03T01:01:42;2.13;;;1.30;;
10920;SDS011;5513;50.580;8.818;2022-09-03T01:07:16;3.87;;;1.50;;
10920;SDS011;5513;50.580;8.818;2022-09-03T01:09:58;1.80;;;1.50;;
10920;SDS011;5513;50.580;8.818;2022-09-03T01:12:40;2.73;;;2.00;;
10920;SDS011;5513;50.580;8.818;2022-09-03T01:15:18;2.73;;;2.10;;
10920;SDS011;5513;50.580;8.818;2022-09-03T01:17:56;1.90;;;1.37;;
10920;SDS011;5513;50.580;8.818;2022-09-03T01:20:47;2.13;;;1.60;;
10920;SDS011;5513;50.580;8.818;2022-09-03T01:23:33;3.53;;;1.30;;
10920;SDS011;5513;50.580;8.818;2022-09-03T01:26:21;2.77;;;1.60;;
10920;SDS011;5513;50.580;8.818;2022-09-03T01:29:01;1.93;;;1.73;;
10920;SDS011;5513;50.580;8.818;2022-09-03T01:31:39;2.37;;;1.70;;
10920;SDS011;5513;50.580;8.818;2022-09-03T01:34:15;1.83;;;1.63;;
10920;SDS011;5513;50.580;8.818;2022-09-03T01:36:52;3.30;;;1.80;;
10920;SDS011;5513;50.580;8.818;2022-09-03T01:39:31;1.50;;;1.40;;
10920;SDS011;5513;50.580;8.818;2022-09-03T01:42:14;2.43;;;1.43;;
10920;SDS011;5513;50.580;8.818;2022-09-03T01:44:58;1.43;;;1.17;;
10920;SDS011;5513;50.580;8.818;2022-09-03T01:47:37;2.47;;;1.40;;
10920;SDS011;5513;50.580;8.818;2022-09-03T01:50:21;2.67;;;1.90;;
10920;SDS011;5513;50.580;8.818;2022-09-03T01:53:02;2.63;;;1.80;;
10920;SDS011;5513;50.580;8.818;2022-09-03T01:55:38;2.87;;;1.40;;
10920;SDS011;5513;50.580;8.818;2022-09-03T01:58:17;1.47;;;1.33;;
10920;SDS011;5513;50.580;8.818;2022-09-03T02:00:52;1.30;;;1.10;;
10920;SDS011;5513;50.580;8.818;2022-09-03T02:03:24;2.93;;;1.47;;
10920;SDS011;5513;50.580;8.818;2022-09-03T02:06:06;2.63;;;1.13;;
10920;SDS011;5513;50.580;8.818;2022-09-03T02:08:35;3.97;;;1.47;;
10920;SDS011;5513;50.580;8.818;2022-09-03T02:11:03;5.37;;;3.17;;
10920;SDS011;5513;50.580;8.818;2022-09-03T02:13:35;4.07;;;1.40;;
10920;SDS011;5513;50.580;8.818;2022-09-03T02:16:11;1.20;;;1.10;;
10920;SDS011;5513;50.580;8.818;2022-09-03T02:18:43;2.80;;;1.40;;
10920;SDS011;5513;50.580;8.818;2022-09-03T02:21:15;2.90;;;1.67;;
10920;SDS011;5513;50.580;8.818;2022-09-03T02:23:46;2.70;;;1.27;;
10920;SDS011;5513;50.580;8.818;2022-09-03T02:26:15;2.80;;;1.17;;
10920;SDS011;5513;50.580;8.818;2022-09-03T02:28:47;3.60;;;1.73;;
10920;SDS011;5513;50.580;8.818;2022-09-03T02:31:18;2.70;;;1.23;;
10920;SDS011;5513;50.580;8.818;2022-09-03T02:33:47;2.60;;;1.00;;
10920;SDS011;5513;50.580;8.818;2022-09-03T02:36:19;3.37;;;1.70;;
10920;SDS011;5513;50.580;8.818;2022-09-03T02:38:53;3.53;;;1.70;;
10920;SDS011;5513;50.580;8.818;2022-09-03T02:41:21;2.43;;;1.30;;
10920;SDS011;5513;50.580;8.818;2022-09-03T02:43:53;2.60;;;1.30;;
10920;SDS011;5513;50.580;8.818;2022-09-03T02:46:28;3.17;;;1.47;;
10920;SDS011;5513;50.580;8.818;2022-09-03T02:49:01;2.53;;;1.33;;
10920;SDS011;5513;50.580;8.818;2022-09-03T02:51:33;1.77;;;1.20;;
10920;SDS011;5513;50.580;8.818;2022-09-03T02:54:02;2.70;;;1.40;;
10920;SDS011;5513;50.580;8.818;2022-09-03T02:56:31;2.37;;;1.07;;
10920;SDS011;5513;50.580;8.818;2022-09-03T02:59:00;1.40;;;1.20;;
10920;SDS011;5513;50.580;8.818;2022-09-03T03:01:31;2.30;;;1.17;;
10920;SDS011;5513;50.580;8.818;2022-09-03T03:04:01;1.83;;;1.10;;
10920;SDS011;5513;50.580;8.818;2022-09-03T03:06:30;2.30;;;1.27;;
10920;SDS011;5513;50.580;8.818;2022-09-03T03:08:58;1.40;;;1.20;;
10920;SDS011;5513;50.580;8.818;2022-09-03T03:11:30;1.60;;;1.20;;
10920;SDS011;5513;50.580;8.818;2022-09-03T03:14:02;4.70;;;1.30;;
10920;SDS011;5513;50.580;8.818;2022-09-03T03:16:32;1.50;;;1.30;;
10920;SDS011;5513;50.580;8.818;2022-09-03T03:19:00;2.47;;;1.20;;
10920;SDS011;5513;50.580;8.818;2022-09-03T03:21:29;2.13;;;1.37;;
10920;SDS011;5513;50.580;8.818;2022-09-03T03:24:00;2.43;;;1.40;;
10920;SDS011;5513;50.580;8.818;2022-09-03T03:26:28;1.27;;;1.17;;
10920;SDS011;5513;50.580;8.818;2022-09-03T03:28:58;1.57;;;1.30;;
10920;SDS011;5513;50.580;8.818;2022-09-03T03:31:30;2.53;;;1.50;;
10920;SDS011;5513;50.580;8.818;2022-09-03T03:34:01;1.60;;;1.17;;
10920;SDS011;5513;50.580;8.818;2022-09-03T03:36:32;1.40;;;1.20;;
10920;SDS011;5513;50.580;8.818;2022-09-03T03:39:02;1.37;;;1.10;;
10920;SDS011;5513;50.580;8.818;2022-09-03T03:41:31;1.53;;;1.43;;
10920;SDS011;5513;50.580;8.818;2022-09-03T03:44:03;1.60;;;1.30;;
10920;SDS011;5513;50.580;8.818;2022-09-03T03:46:35;1.70;;;1.30;;
10920;SDS011;5513;50.580;8.818;2022-09-03T03:49:05;1.93;;;1.33;;
10920;SDS011;5513;50.580;8.818;2022-09-03T03:51:34;1.80;;;1.30;;
10920;SDS011;5513;50.580;8.818;2022-09-03T03:54:03;1.57;;;1.30;;
10920;SDS011;5513;50.580;8.818;2022-09-03T03:56:33;2.00;;;1.23;;
10920;SDS011;5513;50.580;8.818;2022-09-03T03:59:02;1.80;;;1.27;;
10920;SDS011;5513;50.580;8.818;2022-09-03T04:01:31;2.03;;;1.20;;
10920;SDS011;5513;50.580;8.818;2022-09-03T04:04:02;2.50;;;1.60;;
10920;SDS011;5513;50.580;8.818;2022-09-03T04:06:31;2.60;;;1.30;;
10920;SDS011;5513;50.580;8.818;2022-09-03T04:09:00;4.00;;;1.30;;
10920;SDS011;5513;50.580;8.818;2022-09-03T04:11:29;1.50;;;1.40;;
10920;SDS011;5513;50.580;8.818;2022-09-03T04:14:01;2.20;;;1.30;;
10920;SDS011;5513;50.580;8.818;2022-09-03T04:16:30;1.43;;;1.10;;
10920;SDS011;5513;50.580;8.818;2022-09-03T04:18:59;1.93;;;1.57;;
10920;SDS011;5513;50.580;8.818;2022-09-03T04:21:29;1.90;;;1.20;;
10920;SDS011;5513;50.580;8.818;2022-09-03T04:23:58;1.27;;;1.10;;
10920;SDS011;5513;50.580;8.818;2022-09-03T04:26:27;3.13;;;1.30;;
10920;SDS011;5513;50.580;8.818;2022-09-03T04:28:57;2.37;;;1.30;;
10920;SDS011;5513;50.580;8.818;2022-09-03T04:31:27;1.63;;;1.20;;
10920;SDS011;5513;50.580;8.818;2022-09-03T04:33:57;2.47;;;1.40;;
10920;SDS011;5513;50.580;8.818;2022-09-03T04:36:26;2.93;;;1.60;;
10920;SDS011;5513;50.580;8.818;2022-09-03T04:38:57;2.40;;;1.37;;
10920;SDS011;5513;50.580;8.818;2022-09-03T04:41:28;1.63;;;1.30;;
10920;SDS011;5513;50.580;8.818;2022-09-03T04:43:58;2.60;;;1.30;;
10920;SDS011;5513;50.580;8.818;2022-09-03T04:46:27;2.70;;;1.40;;
10920;SDS011;5513;50.580;8.818;2022-09-03T04:48:59;1.60;;;1.30;;
10920;SDS011;5513;50.580;8.818;2022-09-03T04:51:28;2.17;;;1.30;;
10920;SDS011;5513;50.580;8.818;2022-09-03T04:53:59;2.03;;;1.20;;
10920;SDS011;5513;50.580;8.818;2022-09-03T04:56:29;3.77;;;1.30;;
10920;SDS011;5513;50.580;8.818;2022-09-03T04:58:59;2.57;;;1.37;;
10920;SDS011;5513;50.580;8.818;2022-09-03T05:01:29;1.30;;;1.20;;
10920;SDS011;5513;50.580;8.818;2022-09-03T05:04:00;2.60;;;1.30;;
10920;SDS011;5513;50.580;8.818;2022-09-03T05:06:29;2.03;;;1.40;;
10920;SDS011;5513;50.580;8.818;2022-09-03T05:09:00;4.40;;;1.50;;
10920;SDS011;5513;50.580;8.818;2022-09-03T05:11:29;1.20;;;1.10;;
10920;SDS011;5513;50.580;8.818;2022-09-03T05:13:58;3.53;;;1.30;;
10920;SDS011;5513;50.580;8.818;2022-09-03T05:16:36;4.20;;;1.57;;
10920;SDS011;5513;50.580;8.818;2022-09-03T05:19:05;2.17;;;1.30;;
10920;SDS011;5513;50.580;8.818;2022-09-03T05:21:34;1.67;;;1.30;;
10920;SDS011;5513;50.580;8.818;2022-09-03T05:24:05;2.67;;;1.33;;
10920;SDS011;5513;50.580;8.818;2022-09-03T05:26:35;3.93;;;1.50;;
10920;SDS011;5513;50.580;8.818;2022-09-03T05:29:05;3.37;;;1.40;;
10920;SDS011;5513;50.580;8.818;2022-09-03T05:31:35;2.20;;;1.50;;
10920;SDS011;5513;50.580;8.818;2022-09-03T05:34:05;2.47;;;1.40;;
10920;SDS011;5513;50.580;8.818;2022-09-03T05:36:42;2.23;;;1.30;;
10920;SDS011;5513;50.580;8.818;2022-09-03T05:39:15;2.80;;;1.50;;
10920;SDS011;5513;50.580;8.818;2022-09-03T05:41:46;4.53;;;1.40;;
10920;SDS011;5513;50.580;8.818;2022-09-03T05:44:19;2.20;;;1.27;;
10920;SDS011;5513;50.580;8.818;2022-09-03T05:46:49;2.70;;;1.70;;
10920;SDS011;5513;50.580;8.818;2022-09-03T05:49:18;2.57;;;1.43;;
10920;SDS011;5513;50.580;8.818;2022-09-03T05:51:46;1.60;;;1.50;;
10920;SDS011;5513;50.580;8.818;2022-09-03T05:54:16;1.63;;;1.37;;
10920;SDS011;5513;50.580;8.818;2022-09-03T05:56:45;2.50;;;1.50;;
10920;SDS011;5513;50.580;8.818;2022-09-03T05:59:13;3.80;;;1.47;;
10920;SDS011;5513;50.580;8.818;2022-09-03T06:01:42;1.70;;;1.20;;
10920;SDS011;5513;50.580;8.818;2022-09-03T06:04:17;1.83;;;1.27;;
10920;SDS011;5513;50.580;8.818;2022-09-03T06:06:47;3.13;;;1.50;;
10920;SDS011;5513;50.580;8.818;2022-09-03T06:09:17;2.13;;;1.30;;
10920;SDS011;5513;50.580;8.818;2022-09-03T06:11:49;1.67;;;1.30;;
10920;SDS011;5513;50.580;8.818;2022-09-03T06:14:19;1.70;;;1.40;;
10920;SDS011;5513;50.580;8.818;2022-09-03T06:16:49;1.90;;;1.47;;
10920;SDS011;5513;50.580;8.818;2022-09-03T06:19:18;1.63;;;1.30;;
10920;SDS011;5513;50.580;8.818;2022-09-03T06:21:47;5.17;;;1.40;;
10920;SDS011;5513;50.580;8.818;2022-09-03T06:24:20;2.23;;;1.60;;
10920;SDS011;5513;50.580;8.818;2022-09-03T06:26:53;1.87;;;1.27;;
10920;SDS011;5513;50.580;8.818;2022-09-03T06:29:22;5.43;;;1.70;;
10920;SDS011;5513;50.580;8.818;2022-09-03T06:31:51;6.27;;;1.67;;
10920;SDS011;5513;50.580;8.818;2022-09-03T06:34:19;9.03;;;1.53;;
10920;SDS011;5513;50.580;8.818;2022-09-03T06:36:51;10.53;;;1.90;;
10920;SDS011;5513;50.580;8.818;2022-09-03T06:39:21;16.03;;;2.17;;
10920;SDS011;5513;50.580;8.818;2022-09-03T06:41:51;9.73;;;1.70;;
10920;SDS011;5513;50.580;8.818;2022-09-03T06:44:20;19.40;;;2.03;;
10920;SDS011;5513;50.580;8.818;2022-09-03T06:46:49;15.80;;;2.13;;
10920;SDS011;5513;50.580;8.818;2022-09-03T06:49:18;21.40;;;2.27;;
10920;SDS011;5513;50.580;8.818;2022-09-03T06:51:47;14.67;;;2.00;;
10920;SDS011;5513;50.580;8.818;2022-09-03T06:54:15;10.50;;;1.67;;
10920;SDS011;5513;50.580;8.818;2022-09-03T06:56:47;12.27;;;1.80;;
10920;SDS011;5513;50.580;8.818;2022-09-03T06:59:15;15.23;;;1.97;;
10920;SDS011;5513;50.580;8.818;2022-09-03T07:01:45;7.23;;;1.57;;
10920;SDS011;5513;50.580;8.818;2022-09-03T07:04:14;7.60;;;1.67;;
10920;SDS011;5513;50.580;8.818;2022-09-03T07:06:46;8.77;;;1.50;;
10920;SDS011;5513;50.580;8.818;2022-09-03T07:09:14;9.77;;;1.73;;
10920;SDS011;5513;50.580;8.818;2022-09-03T07:11:45;13.63;;;2.10;;
10920;SDS011;5513;50.580;8.818;2022-09-03T07:14:16;13.37;;;1.70;;
10920;SDS011;5513;50.580;8.818;2022-09-03T07:16:46;13.03;;;1.60;;
10920;SDS011;5513;50.580;8.818;2022-09-03T07:19:15;4.20;;;1.70;;
10920;SDS011;5513;50.580;8.818;2022-09-03T07:21:44;1.67;;;1.20;;
10920;SDS011;5513;50.580;8.818;2022-09-03T07:24:16;2.60;;;1.77;;
10920;SDS011;5513;50.580;8.818;2022-09-03T07:26:49;2.40;;;1.30;;
10920;SDS011;5513;50.580;8.818;2022-09-03T07:29:17;1.77;;;1.30;;
10920;SDS011;5513;50.580;8.818;2022-09-03T07:31:47;2.60;;;1.50;;
10920;SDS011;5513;50.580;8.818;2022-09-03T07:34:21;4.57;;;1.33;;
10920;SDS011;5513;50.580;8.818;2022-09-03T07:36:51;3.43;;;1.60;;
10920;SDS011;5513;50.580;8.818;2022-09-03T07:39:20;4.27;;;1.23;;
10920;SDS011;5513;50.580;8.818;2022-09-03T07:41:50;1.77;;;1.20;;
10920;SDS011;5513;50.580;8.818;2022-09-03T07:44:20;4.23;;;1.33;;
10920;SDS011;5513;50.580;8.818;2022-09-03T07:46:49;2.83;;;1.40;;
10920;SDS011;5513;50.580;8.818;2022-09-03T07:49:19;2.17;;;1.50;;
10920;SDS011;5513;50.580;8.818;2022-09-03T07:51:48;4.17;;;1.30;;
10920;SDS011;5513;50.580;8.818;2022-09-03T07:54:20;3.90;;;1.60;;
10920;SDS011;5513;50.580;8.818;2022-09-03T07:56:57;4.30;;;1.30;;
10920;SDS011;5513;50.580;8.818;2022-09-03T07:59:28;2.20;;;1.50;;
10920;SDS011;5513;50.580;8.818;2022-09-03T08:01:56;2.13;;;1.17;;
10920;SDS011;5513;50.580;8.818;2022-09-03T08:04:25;4.10;;;1.30;;
10920;SDS011;5513;50.580;8.818;2022-09-03T08:06:54;3.63;;;1.37;;
10920;SDS011;5513;50.580;8.818;2022-09-03T08:09:23;2.47;;;1.30;;
10920;SDS011;5513;50.580;8.818;2022-09-03T08:11:51;3.70;;;1.10;;
10920;SDS011;5513;50.580;8.818;2022-09-03T08:14:21;4.47;;;1.40;;
10920;SDS011;5513;50.580;8.818;2022-09-03T08:16:50;4.47;;;1.30;;
10920;SDS011;5513;50.580;8.818;2022-09-03T08:19:18;4.27;;;1.30;;
10920;SDS011;5513;50.580;8.818;2022-09-03T08:21:48;1.83;;;1.30;;
10920;SDS011;5513;50.580;8.818;2022-09-03T08:24:17;1.30;;;1.20;;
10920;SDS011;5513;50.580;8.818;2022-09-03T08:26:46;2.33;;;1.20;;
10920;SDS011;5513;50.580;8.818;2022-09-03T08:29:18;2.93;;;1.20;;
10920;SDS011;5513;50.580;8.818;2022-09-03T08:31:48;3.77;;;1.73;;
10920;SDS011;5513;50.580;8.818;2022-09-03T08:34:17;2.40;;;1.47;;
10920;SDS011;5513;50.580;8.818;2022-09-03T08:36:48;1.87;;;1.50;;
10920;SDS011;5513;50.580;8.818;2022-09-03T08:39:18;2.57;;;1.73;;
10920;SDS011;5513;50.580;8.818;2022-09-03T08:45:00;2.50;;;1.67;;
10920;SDS011;5513;50.580;8.818;2022-09-03T08:47:36;3.00;;;1.50;;
10920;SDS011;5513;50.580;8.818;2022-09-03T08:50:10;3.63;;;1.50;;
10920;SDS011;5513;50.580;8.818;2022-09-03T08:52:44;1.73;;;1.30;;
10920;SDS011;5513;50.580;8.818;2022-09-03T08:55:16;3.13;;;1.50;;
10920;SDS011;5513;50.580;8.818;2022-09-03T08:57:49;4.27;;;1.90;;
10920;SDS011;5513;50.580;8.818;2022-09-03T09:00:22;2.00;;;1.47;;
10920;SDS011;5513;50.580;8.818;2022-09-03T09:05:47;4.80;;;1.50;;
10920;SDS011;5513;50.580;8.818;2022-09-03T09:08:23;1.87;;;1.40;;
10920;SDS011;5513;50.580;8.818;2022-09-03T09:11:01;1.77;;;1.40;;
10920;SDS011;5513;50.580;8.818;2022-09-03T09:13:39;2.23;;;1.40;;
10920;SDS011;5513;50.580;8.818;2022-09-03T09:16:14;3.33;;;1.40;;
10920;SDS011;5513;50.580;8.818;2022-09-03T09:18:55;3.43;;;1.47;;
10920;SDS011;5513;50.580;8.818;2022-09-03T09:21:38;3.10;;;1.50;;
10920;SDS011;5513;50.580;8.818;2022-09-03T09:24:16;5.20;;;1.30;;
10920;SDS011;5513;50.580;8.818;2022-09-03T09:26:49;2.10;;;1.47;;
10920;SDS011;5513;50.580;8.818;2022-09-03T09:29:22;1.33;;;1.23;;
10920;SDS011;5513;50.580;8.818;2022-09-03T09:31:54;1.87;;;1.30;;
10920;SDS011;5513;50.580;8.818;2022-09-03T09:34:25;1.73;;;1.33;;
10920;SDS011;5513;50.580;8.818;2022-09-03T09:36:54;5.13;;;1.60;;
10920;SDS011;5513;50.580;8.818;2022-09-03T09:39:23;2.27;;;1.50;;
10920;SDS011;5513;50.580;8.818;2022-09-03T09:41:57;2.93;;;1.40;;
10920;SDS011;5513;50.580;8.818;2022-09-03T09:44:27;3.10;;;1.70;;
10920;SDS011;5513;50.580;8.818;2022-09-03T09:47:03;5.07;;;1.30;;
10920;SDS011;5513;50.580;8.818;2022-09-03T09:49:36;2.03;;;1.50;;
10920;SDS011;5513;50.580;8.818;2022-09-03T09:52:13;3.13;;;1.50;;
10920;SDS011;5513;50.580;8.818;2022-09-03T09:54:47;2.63;;;1.50;;
10920;SDS011;5513;50.580;8.818;2022-09-03T09:57:16;5.70;;;1.60;;
10920;SDS011;5513;50.580;8.818;2022-09-03T10:00:00;3.33;;;1.77;;
10920;SDS011;5513;50.580;8.818;2022-09-03T10:02:32;2.53;;;1.70;;
10920;SDS011;5513;50.580;8.818;2022-09-03T10:05:12;2.17;;;1.53;;
10920;SDS011;5513;50.580;8.818;2022-09-03T10:07:52;3.60;;;1.30;;
10920;SDS011;5513;50.580;8.818;2022-09-03T10:10:23;2.07;;;1.37;;
10920;SDS011;5513;50.580;8.818;2022-09-03T10:13:03;2.20;;;1.70;;
10920;SDS011;5513;50.580;8.818;2022-09-03T10:15:40;2.70;;;1.43;;
10920;SDS011;5513;50.580;8.818;2022-09-03T10:18:14;4.03;;;1.40;;
10920;SDS011;5513;50.580;8.818;2022-09-03T10:20:57;2.43;;;1.50;;
10920;SDS011;5513;50.580;8.818;2022-09-03T10:23:34;3.40;;;1.70;;
10920;SDS011;5513;50.580;8.818;2022-09-03T10:26:15;2.23;;;1.50;;
10920;SDS011;5513;50.580;8.818;2022-09-03T10:28:48;2.20;;;1.40;;
10920;SDS011;5513;50.580;8.818;2022-09-03T10:34:21;4.13;;;1.60;;
10920;SDS011;5513;50.580;8.818;2022-09-03T10:37:05;4.33;;;1.40;;
10920;SDS011;5513;50.580;8.818;2022-09-03T10:39:46;2.33;;;1.30;;
10920;SDS011;5513;50.580;8.818;2022-09-03T10:42:31;4.13;;;1.80;;
10920;SDS011;5513;50.580;8.818;2022-09-03T10:45:12;2.20;;;1.50;;
10920;SDS011;5513;50.580;8.818;2022-09-03T10:50:39;2.43;;;1.43;;
10920;SDS011;5513;50.580;8.818;2022-09-03T10:53:21;2.27;;;1.40;;
10920;SDS011;5513;50.580;8.818;2022-09-03T10:55:59;3.30;;;1.80;;
10920;SDS011;5513;50.580;8.818;2022-09-03T10:58:38;6.27;;;2.03;;
10920;SDS011;5513;50.580;8.818;2022-09-03T11:01:22;4.37;;;1.80;;
10920;SDS011;5513;50.580;8.818;2022-09-03T11:04:04;3.37;;;1.70;;
10920;SDS011;5513;50.580;8.818;2022-09-03T11:06:46;4.73;;;1.37;;
10920;SDS011;5513;50.580;8.818;2022-09-03T11:09:22;8.57;;;4.63;;
10920;SDS011;5513;50.580;8.818;2022-09-03T11:11:56;3.90;;;1.80;;
10920;SDS011;5513;50.580;8.818;2022-09-03T11:14:30;4.17;;;2.03;;
10920;SDS011;5513;50.580;8.818;2022-09-03T11:17:05;2.80;;;1.77;;
10920;SDS011;5513;50.580;8.818;2022-09-03T11:19:40;2.37;;;1.70;;
10920;SDS011;5513;50.580;8.818;2022-09-03T11:22:16;5.30;;;1.80;;
10920;SDS011;5513;50.580;8.818;2022-09-03T11:24:49;2.87;;;1.57;;
10920;SDS011;5513;50.580;8.818;2022-09-03T11:27:23;2.10;;;1.63;;
10920;SDS011;5513;50.580;8.818;2022-09-03T11:30:04;3.33;;;2.00;;
10920;SDS011;5513;50.580;8.818;2022-09-03T11:32:40;2.87;;;1.57;;
10920;SDS011;5513;50.580;8.818;2022-09-03T11:35:24;3.33;;;1.83;;
10920;SDS011;5513;50.580;8.818;2022-09-03T11:37:57;2.93;;;1.93;;
10920;SDS011;5513;50.580;8.818;2022-09-03T11:43:26;4.73;;;2.00;;
10920;SDS011;5513;50.580;8.818;2022-09-03T11:46:03;3.27;;;1.90;;
10920;SDS011;5513;50.580;8.818;2022-09-03T11:48:41;5.93;;;2.20;;
10920;SDS011;5513;50.580;8.818;2022-09-03T11:51:17;2.70;;;1.77;;
10920;SDS011;5513;50.580;8.818;2022-09-03T11:53:54;2.70;;;1.50;;
10920;SDS011;5513;50.580;8.818;2022-09-03T11:56:28;2.15;;;1.80;;
10920;SDS011;5513;50.580;8.818;2022-09-03T11:59:03;4.40;;;1.90;;
10920;SDS011;5513;50.580;8.818;2022-09-03T12:01:42;2.45;;;1.60;;
10920;SDS011;5513;50.580;8.818;2022-09-03T12:04:20;2.90;;;1.60;;
10920;SDS011;5513;50.580;8.818;2022-09-03T12:07:00;1.50;;;1.40;;
10920;SDS011;5513;50.580;8.818;2022-09-03T12:09:50;4.43;;;1.83;;
10920;SDS011;5513;50.580;8.818;2022-09-03T12:12:39;3.10;;;2.10;;
10920;SDS011;5513;50.580;8.818;2022-09-03T12:15:22;2.00;;;1.40;;
10920;SDS011;5513;50.580;8.818;2022-09-03T12:18:03;4.40;;;1.88;;
10920;SDS011;5513;50.580;8.818;2022-09-03T12:20:59;2.05;;;1.83;;
10920;SDS011;5513;50.580;8.818;2022-09-03T12:23:31;2.13;;;1.63;;
10920;SDS011;5513;50.580;8.818;2022-09-03T12:26:02;4.18;;;1.70;;
10920;SDS011;5513;50.580;8.818;2022-09-03T12:28:35;2.70;;;2.07;;
10920;SDS011;5513;50.580;8.818;2022-09-03T12:31:14;2.17;;;1.80;;
10920;SDS011;5513;50.580;8.818;2022-09-03T12:34:00;3.78;;;2.42;;
10920;SDS011;5513;50.580;8.818;2022-09-03T12:36:35;4.83;;;1.83;;
10920;SDS011;5513;50.580;8.818;2022-09-03T12:39:08;3.63;;;1.80;;
10920;SDS011;5513;50.580;8.818;2022-09-03T12:41:45;2.25;;;1.73;;
10920;SDS011;5513;50.580;8.818;2022-09-03T12:44:28;3.70;;;1.70;;
10920;SDS011;5513;50.580;8.818;2022-09-03T12:47:02;2.37;;;1.80;;
10920;SDS011;5513;50.580;8.818;2022-09-03T12:49:55;3.85;;;2.25;;
10920;SDS011;5513;50.580;8.818;2022-09-03T12:52:26;3.15;;;1.60;;
10920;SDS011;5513;50.580;8.818;2022-09-03T12:54:58;5.35;;;2.50;;
10920;SDS011;5513;50.580;8.818;2022-09-03T12:57:33;2.92;;;2.10;;
10920;SDS011;5513;50.580;8.818;2022-09-03T13:00:09;4.50;;;1.70;;
10920;SDS011;5513;50.580;8.818;2022-09-03T13:02:44;2.65;;;1.65;;
10920;SDS011;5513;50.580;8.818;2022-09-03T13:05:17;3.03;;;1.73;;
10920;SDS011;5513;50.580;8.818;2022-09-03T13:07:48;2.17;;;1.40;;
10920;SDS011;5513;50.580;8.818;2022-09-03T13:10:23;2.22;;;1.70;;
10920;SDS011;5513;50.580;8.818;2022-09-03T13:12:57;2.42;;;1.58;;
10920;SDS011;5513;50.580;8.818;2022-09-03T13:15:29;4.57;;;1.70;;
10920;SDS011;5513;50.580;8.818;2022-09-03T13:21:02;2.92;;;1.85;;
10920;SDS011;5513;50.580;8.818;2022-09-03T13:23:46;2.00;;;1.80;;
10920;SDS011;5513;50.580;8.818;2022-09-03T13:26:31;2.45;;;1.70;;
10920;SDS011;5513;50.580;8.818;2022-09-03T13:29:18;2.17;;;1.60;;
10920;SDS011;5513;50.580;8.818;2022-09-03T13:32:14;2.92;;;1.83;;
10920;SDS011;5513;50.580;8.818;2022-09-03T13:34:56;3.22;;;1.58;;
10920;SDS011;5513;50.580;8.818;2022-09-03T13:37:28;3.55;;;1.60;;
10920;SDS011;5513;50.580;8.818;2022-09-03T13:40:05;3.97;;;2.30;;
10920;SDS011;5513;50.580;8.818;2022-09-03T13:42:44;2.08;;;1.60;;
10920;SDS011;5513;50.580;8.818;2022-09-03T13:45:25;1.90;;;1.67;;
10920;SDS011;5513;50.580;8.818;2022-09-03T13:48:05;2.85;;;1.67;;
10920;SDS011;5513;50.580;8.818;2022-09-03T13:50:58;3.75;;;1.80;;
10920;SDS011;5513;50.580;8.818;2022-09-03T13:53:41;1.70;;;1.48;;
10920;SDS011;5513;50.580;8.818;2022-09-03T13:56:20;2.85;;;1.67;;
10920;SDS011;5513;50.580;8.818;2022-09-03T13:58:59;2.10;;;1.55;;
10920;SDS011;5513;50.580;8.818;2022-09-03T14:01:39;3.80;;;1.60;;
10920;SDS011;5513;50.580;8.818;2022-09-03T14:04:27;3.20;;;1.58;;
10920;SDS011;5513;50.580;8.818;2022-09-03T14:07:05;1.88;;;1.52;;
10920;SDS011;5513;50.580;8.818;2022-09-03T14:09:38;3.30;;;2.03;;
10920;SDS011;5513;50.580;8.818;2022-09-03T14:12:16;2.35;;;1.50;;
10920;SDS011;5513;50.580;8.818;2022-09-03T14:14:51;2.22;;;1.60;;
10920;SDS011;5513;50.580;8.818;2022-09-03T14:17:29;2.15;;;1.60;;
10920;SDS011;5513;50.580;8.818;2022-09-03T14:20:09;2.85;;;1.50;;
10920;SDS011;5513;50.580;8.818;2022-09-03T14:22:46;2.05;;;1.60;;
10920;SDS011;5513;50.580;8.818;2022-09-03T14:25:19;1.90;;;1.70;;
10920;SDS011;5513;50.580;8.818;2022-09-03T14:27:48;4.68;;;1.95;;
10920;SDS011;5513;50.580;8.818;2022-09-03T14:30:19;3.20;;;1.70;;
10920;SDS011;5513;50.580;8.818;2022-09-03T14:33:00;2.78;;;1.60;;
10920;SDS011;5513;50.580;8.818;2022-09-03T14:38:38;2.38;;;1.70;;
10920;SDS011;5513;50.580;8.818;2022-09-03T14:41:25;3.03;;;1.70;;
10920;SDS011;5513;50.580;8.818;2022-09-03T14:47:13;4.70;;;1.70;;
10920;SDS011;5513;50.580;8.818;2022-09-03T14:55:49;1.77;;;1.48;;
10920;SDS011;5513;50.580;8.818;2022-09-03T14:58:32;2.78;;;1.77;;
10920;SDS011;5513;50.580;8.818;2022-09-03T15:01:09;2.03;;;1.38;;
10920;SDS011;5513;50.580;8.818;2022-09-03T15:03:54;2.15;;;1.83;;
10920;SDS011;5513;50.580;8.818;2022-09-03T15:06:38;2.33;;;1.70;;
10920;SDS011;5513;50.580;8.818;2022-09-03T15:09:30;2.30;;;1.90;;
10920;SDS011;5513;50.580;8.818;2022-09-03T15:12:07;2.03;;;1.60;;
10920;SDS011;5513;50.580;8.818;2022-09-03T15:14:45;2.95;;;1.60;;
10920;SDS011;5513;50.580;8.818;2022-09-03T15:17:25;2.50;;;1.60;;
10920;SDS011;5513;50.580;8.818;2022-09-03T15:20:21;2.92;;;1.60;;
10920;SDS011;5513;50.580;8.818;2022-09-03T15:23:02;3.58;;;1.70;;
10920;SDS011;5513;50.580;8.818;2022-09-03T15:29:03;3.55;;;1.48;;
10920;SDS011;5513;50.580;8.818;2022-09-03T15:31:46;4.13;;;1.60;;
10920;SDS011;5513;50.580;8.818;2022-09-03T15:34:35;3.13;;;1.52;;
10920;SDS011;5513;50.580;8.818;2022-09-03T15:37:24;4.28;;;2.10;;
10920;SDS011;5513;50.580;8.818;2022-09-03T15:39:57;2.08;;;1.60;;
10920;SDS011;5513;50.580;8.818;2022-09-03T15:42:30;2.58;;;1.60;;
10920;SDS011;5513;50.580;8.818;2022-09-03T15:45:03;3.67;;;1.40;;
10920;SDS011;5513;50.580;8.818;2022-09-03T15:47:36;1.70;;;1.60;;
10920;SDS011;5513;50.580;8.818;2022-09-03T15:50:23;3.65;;;1.60;;
10920;SDS011;5513;50.580;8.818;2022-09-03T15:52:58;3.60;;;1.80;;
10920;SDS011;5513;50.580;8.818;2022-09-03T15:55:31;4.57;;;1.60;;
10920;SDS011;5513;50.580;8.818;2022-09-03T15:58:05;2.58;;;1.55;;
10920;SDS011;5513;50.580;8.818;2022-09-03T16:00:48;4.15;;;1.48;;
10920;SDS011;5513;50.580;8.818;2022-09-03T16:03:21;3.72;;;1.70;;
10920;SDS011;5513;50.580;8.818;2022-09-03T16:06:06;2.22;;;1.50;;
10920;SDS011;5513;50.580;8.818;2022-09-03T16:08:51;3.35;;;1.80;;
10920;SDS011;5513;50.580;8.818;2022-09-03T16:11:27;3.17;;;1.80;;
10920;SDS011;5513;50.580;8.818;2022-09-03T16:14:06;3.90;;;1.70;;
10920;SDS011;5513;50.580;8.818;2022-09-03T16:16:44;2.33;;;1.65;;
10920;SDS011;5513;50.580;8.818;2022-09-03T16:19:22;3.75;;;1.83;;
10920;SDS011;5513;50.580;8.818;2022-09-03T16:21:56;2.78;;;1.90;;